Date,TemperatureHighF,TemperatureAvgF,TemperatureLowF,DewpointHighF,DewpointAvgF,DewpointLowF,HumidityHigh,HumidityAvg,HumidityLow,PressureMaxIn,PressureMinIn,WindSpeedMaxMPH,WindSpeedAvgMPH,GustSpeedMaxMPH,PrecipitationSumIn
2013-1-1,76,67,57,-100,-100,-100,0,0,100,30.20,30.03,6,2,10,0.00
2013-1-2,77,70,63,-100,-100,-100,0,0,100,30.05,29.98,5,2,9,0.00
2013-1-3,75,66,61,-100,-100,-100,0,0,100,30.14,30.01,6,2,14,0.00
2013-1-4,63,60,57,-100,-100,-100,0,0,100,30.26,30.14,6,4,14,0.00
2013-1-5,74,65,58,-100,-100,-100,0,0,100,30.27,30.16,7,4,14,0.00
2013-1-6,80,68,63,-100,-100,-100,0,0,100,30.19,30.06,7,4,11,0.00
2013-1-7,67,64,62,-100,-100,-100,0,0,100,30.19,30.09,7,5,13,0.00
2013-1-8,82,71,64,-100,-100,-100,0,0,100,30.20,30.10,6,4,9,0.00
2013-1-9,84,75,70,-100,-100,-100,0,0,100,0.00,40.00,6,3,8,0.00
2013-1-10,82,74,70,-100,-100,-100,0,0,100,0.00,40.00,6,4,11,0.00
2013-1-11,83,74,67,-100,-100,-100,0,0,100,0.00,40.00,7,3,13,0.00
2013-1-12,81,73,68,-100,-100,-100,0,0,100,0.00,40.00,6,3,10,0.00
2013-1-13,81,73,68,-100,-100,-100,0,0,100,0.00,40.00,5,2,8,0.00
2013-1-14,80,72,65,-100,-100,-100,0,0,100,0.00,40.00,6,2,10,0.00
2013-1-15,80,71,64,-100,-100,-100,0,0,100,0.00,40.00,6,2,9,0.00
2013-1-16,81,72,66,-100,-100,-100,0,0,100,0.00,40.00,5,2,13,0.00
2013-1-17,73,65,58,-100,-100,-100,0,0,100,0.00,40.00,14,5,22,0.00
2013-1-18,64,55,44,-100,-100,-100,0,0,100,0.00,40.00,13,6,22,0.00
2013-1-19,74,66,57,-100,-100,-100,0,0,100,0.00,40.00,7,5,11,0.00
2013-1-20,76,68,62,-100,-100,-100,0,0,100,0.00,40.00,5,3,10,0.00
2013-1-21,73,67,63,-100,-100,-100,0,0,100,0.00,40.00,9,4,13,0.00
2013-1-22,67,62,59,-100,-100,-100,0,0,100,0.00,40.00,7,4,14,0.00
2013-1-23,70,60,52,-100,-100,-100,0,0,100,0.00,40.00,6,3,10,0.00
2013-1-24,71,59,49,-100,-100,-100,0,0,100,0.00,40.00,9,2,14,0.00
2013-1-25,73,63,54,-100,-100,-100,0,0,100,0.00,40.00,5,2,7,0.00
2013-1-26,73,61,52,-100,-100,-100,0,0,100,0.00,40.00,7,3,11,0.00
2013-1-27,78,67,59,-100,-100,-100,0,0,100,0.00,40.00,6,3,10,0.00
2013-1-28,81,72,65,-100,-100,-100,0,0,100,0.00,40.00,6,3,9,0.00
2013-1-29,82,72,65,-100,-100,-100,0,0,100,0.00,40.00,6,3,11,0.00
2013-1-30,79,74,68,-100,-100,-100,0,0,100,0.00,40.00,8,6,17,0.00
2013-1-31,61,58,54,-100,-100,-100,0,0,100,0.00,40.00,11,7,18,0.00
2013-2-1,68,58,51,-100,-100,-100,0,0,100,0.00,40.00,8,4,17,0.00
2013-2-2,72,60,51,-100,-100,-100,0,0,100,0.00,40.00,8,3,13,0.00
2013-2-3,69,56,46,-100,-100,-100,0,0,100,0.00,40.00,7,3,14,0.00
2013-2-4,68,58,48,-100,-100,-100,0,0,100,0.00,40.00,6,2,9,0.00
2013-2-5,75,63,51,-100,-100,-100,0,0,100,0.00,40.00,5,2,9,0.00
2013-2-6,79,69,62,-100,-100,-100,0,0,100,0.00,40.00,6,2,10,0.00
2013-2-8,77,67,62,-100,-100,-100,0,0,100,0.00,40.00,8,6,15,0.00
2013-2-9,77,66,59,-100,-100,-100,0,0,100,0.00,40.00,6,4,11,0.00
2013-2-10,80,69,64,-100,-100,-100,0,0,100,0.00,40.00,7,5,14,0.00
2013-2-11,80,72,65,-100,-100,-100,0,0,100,0.00,40.00,7,4,16,0.00
2013-2-12,80,73,67,-100,-100,-100,0,0,100,0.00,40.00,7,3,17,0.00
2013-2-13,79,73,65,-100,-100,-100,0,0,100,0.00,40.00,9,4,18,0.00
2013-2-14,66,64,61,-100,-100,-100,0,0,100,0.00,40.00,8,2,14,0.00
2013-2-15,67,62,58,-100,-100,-100,0,0,100,0.00,40.00,5,3,8,0.00
2013-2-16,67,60,53,-100,-100,-100,0,0,100,0.00,40.00,17,7,26,0.00
2013-2-17,56,49,44,-100,-100,-100,0,0,100,0.00,40.00,9,6,17,0.00
2013-2-18,69,56,44,-100,-100,-100,0,0,100,0.00,40.00,6,4,11,0.00
2013-2-19,75,66,58,-100,-100,-100,0,0,100,0.00,40.00,7,3,14,0.00
2013-2-20,72,66,63,-100,-100,-100,0,0,100,0.00,40.00,6,2,11,0.00
2013-2-21,80,71,63,-100,-100,-100,0,0,100,0.00,40.00,6,4,10,0.00
2013-2-22,81,72,66,-100,-100,-100,0,0,100,0.00,40.00,6,3,13,0.00
2013-2-23,80,74,70,-100,-100,-100,0,0,100,0.00,40.00,7,4,15,0.00
2013-2-24,80,73,70,-100,-100,-100,0,0,100,0.00,40.00,6,2,13,0.00
2013-2-25,81,74,69,-100,-100,-100,0,0,100,0.00,40.00,6,4,13,0.00
2013-2-26,77,73,69,-100,-100,-100,0,0,100,0.00,40.00,7,4,25,0.00
2013-2-27,71,67,60,-100,-100,-100,0,0,100,0.00,40.00,7,4,14,0.00
2013-2-28,71,64,56,-100,-100,-100,0,0,100,0.00,40.00,8,4,15,0.00
2013-3-1,61,58,55,-100,-100,-100,0,0,100,0.00,40.00,10,6,17,0.00
2013-3-2,58,55,51,-100,-100,-100,0,0,100,0.00,40.00,14,7,21,0.00
2013-3-3,55,50,45,-100,-100,-100,0,0,100,0.00,40.00,15,7,22,0.00
2013-3-4,62,54,46,-100,-100,-100,0,0,100,0.00,40.00,8,3,15,0.00
2013-3-5,71,61,47,-100,-100,-100,0,0,100,0.00,40.00,6,2,13,0.00
2013-3-6,67,60,55,-100,-100,-100,0,0,100,0.00,40.00,16,9,25,0.00
2013-3-7,63,54,47,-100,-100,-100,0,0,100,0.00,40.00,9,4,14,0.00
2013-3-8,73,59,48,-100,-100,-100,0,0,100,0.00,40.00,8,3,10,0.00
2013-3-9,75,66,57,-100,-100,-100,0,0,100,0.00,40.00,6,3,10,0.00
2013-3-10,77,68,61,-100,-100,-100,0,0,100,0.00,40.00,7,4,13,0.00
2013-3-11,77,69,62,-100,-100,-100,0,0,100,0.00,40.00,7,5,14,0.00
2013-3-12,71,65,60,-100,-100,-100,0,0,100,0.00,40.00,13,6,20,0.00
2013-3-13,72,63,58,-100,-100,-100,0,0,100,0.00,40.00,13,7,21,0.00
2013-3-14,63,59,54,-100,-100,-100,0,0,100,0.00,40.00,10,6,18,0.00
2013-3-15,67,57,46,-100,-100,-100,0,0,100,0.00,40.00,7,3,13,0.00
2013-3-16,73,58,49,-100,-100,-100,0,0,100,0.00,40.00,7,2,11,0.00
2013-3-17,75,65,55,-100,-100,-100,0,0,100,0.00,40.00,6,2,11,0.00
2013-3-18,74,69,64,-100,-100,-100,0,0,100,0.00,40.00,7,3,13,0.00
2013-3-19,84,71,66,-100,-100,-100,0,0,100,0.00,40.00,7,2,11,0.00
2013-3-20,73,68,63,-100,-100,-100,0,0,100,0.00,40.00,7,3,17,0.00
2013-3-21,67,61,52,-100,-100,-100,0,0,100,0.00,40.00,7,5,13,0.00
2013-3-22,75,64,49,-100,-100,-100,0,0,100,0.00,40.00,7,3,15,0.00
2013-3-23,79,72,67,-100,-100,-100,0,0,100,0.00,40.00,6,4,14,0.00
2013-3-24,78,74,71,-100,-100,-100,0,0,100,0.00,40.00,6,4,16,0.00
2013-3-25,72,63,57,-100,-100,-100,0,0,100,0.00,40.00,15,8,22,0.00
2013-3-26,60,55,51,-100,-100,-100,0,0,100,0.00,40.00,17,8,26,0.00
2013-3-27,56,51,46,-100,-100,-100,0,0,100,0.00,40.00,9,5,15,0.00
2013-3-28,68,58,49,-100,-100,-100,0,0,100,0.00,40.00,8,4,13,0.00
2013-3-29,74,67,53,-100,-100,-100,0,0,100,0.00,40.00,8,4,11,0.00
2013-3-30,74,67,55,-100,-100,-100,0,0,100,0.00,40.00,6,4,11,0.00
2013-3-31,77,69,60,-100,-100,-100,0,0,100,0.00,40.00,6,3,11,0.00
2013-4-1,79,74,69,-100,-100,-100,0,0,100,0.00,40.00,9,5,16,0.00
2013-4-2,79,71,66,-100,-100,-100,0,0,100,0.00,40.00,6,2,10,0.00
2013-4-3,83,74,67,-100,-100,-100,0,0,100,0.00,40.00,7,3,14,0.00
2013-4-4,73,71,68,-100,-100,-100,0,0,100,0.00,40.00,8,4,16,0.00
2013-4-5,72,69,64,-100,-100,-100,0,0,100,0.00,40.00,13,8,22,0.00
2013-4-6,77,66,58,-100,-100,-100,0,0,100,0.00,40.00,10,5,14,0.00
2013-4-7,81,73,65,-100,-100,-100,0,0,100,0.00,40.00,6,4,11,0.00
2013-4-8,85,77,71,-100,-100,-100,0,0,100,0.00,40.00,6,3,9,0.00
2013-4-9,84,76,69,-100,-100,-100,0,0,100,0.00,40.00,7,4,13,0.00
2013-4-10,87,77,69,-100,-100,-100,0,0,100,0.00,40.00,6,4,10,0.00
2013-4-11,87,78,73,-100,-100,-100,0,0,100,0.00,40.00,7,5,15,0.00
2013-4-12,80,78,74,-100,-100,-100,0,0,100,0.00,40.00,9,4,22,0.00
2013-4-13,84,77,71,-100,-100,-100,0,0,100,0.00,40.00,7,3,11,0.00
2013-4-14,84,77,69,-100,-100,-100,0,0,100,0.00,40.00,11,5,15,0.00
2013-4-15,88,78,71,-100,-100,-100,0,0,100,0.00,40.00,6,3,11,0.00
2013-4-16,91,81,72,-100,-100,-100,0,0,100,0.00,40.00,8,4,16,0.00
2013-4-17,87,79,74,-100,-100,-100,0,0,100,0.00,40.00,7,5,15,0.00
2013-4-18,87,80,73,-100,-100,-100,0,0,100,0.00,40.00,7,4,15,0.00
2013-4-19,86,80,74,-100,-100,-100,0,0,100,0.00,40.00,8,5,18,0.00
2013-4-20,78,72,66,-100,-100,-100,0,0,100,0.00,40.00,8,5,17,0.00
2013-4-21,82,71,63,-100,-100,-100,0,0,100,0.00,40.00,9,5,14,0.00
2013-4-22,80,73,70,-100,-100,-100,0,0,100,0.00,40.00,8,4,16,0.00
2013-4-23,84,75,68,-100,-100,-100,0,0,100,0.00,40.00,8,5,15,0.00
2013-4-24,84,75,68,-100,-100,-100,0,0,100,0.00,40.00,9,5,15,0.00
2013-4-25,84,77,70,-100,-100,-100,0,0,100,0.00,40.00,9,4,13,0.00
2013-4-26,87,78,69,-100,-100,-100,0,0,100,0.00,40.00,7,3,11,0.00
2013-4-27,86,79,73,-100,-100,-100,0,0,100,0.00,40.00,6,5,13,0.00
2013-4-28,87,78,72,-100,-100,-100,0,0,100,0.00,40.00,7,5,14,0.00
2013-4-29,84,78,73,-100,-100,-100,0,0,100,0.00,40.00,6,4,11,0.00
2013-4-30,83,76,71,-100,-100,-100,0,0,100,0.00,40.00,6,4,11,0.00
2013-5-1,76,72,69,-100,-100,-100,0,0,100,0.00,40.00,6,3,14,0.00
2013-5-2,80,74,69,-100,-100,-100,0,0,100,0.00,40.00,6,4,11,0.00
2013-5-3,78,74,70,-100,-100,-100,0,0,100,0.00,40.00,9,4,16,0.00
2013-5-4,79,75,69,-100,-100,-100,0,0,100,0.00,40.00,8,5,18,0.00
2013-5-5,74,70,66,-100,-100,-100,0,0,100,0.00,40.00,13,7,20,0.00
2013-5-6,73,70,66,-100,-100,-100,0,0,100,0.00,40.00,7,5,14,0.00
2013-5-7,76,70,61,-100,-100,-100,0,0,100,0.00,40.00,7,3,15,0.00
2013-5-8,78,72,63,-100,-100,-100,0,0,100,0.00,40.00,6,3,13,0.00
2013-5-9,82,75,67,-100,-100,-100,0,0,100,0.00,40.00,7,3,11,0.00
2013-5-10,88,78,71,-100,-100,-100,0,0,100,0.00,40.00,6,3,13,0.00
2013-5-11,87,80,75,-100,-100,-100,0,0,100,0.00,40.00,6,3,13,0.00
2013-5-12,85,79,75,-100,-100,-100,0,0,100,0.00,40.00,8,4,13,0.00
2013-5-13,83,76,71,-100,-100,-100,0,0,100,0.00,40.00,10,5,18,0.00
2013-5-14,83,74,66,-100,-100,-100,0,0,100,0.00,40.00,9,4,17,0.00
2013-5-15,86,76,71,-100,-100,-100,0,0,100,0.00,40.00,6,4,13,0.00
2013-5-16,83,67,72,-100,-100,-100,0,0,100,0.00,40.00,5,4,10,0.00
2013-5-17,85,81,74,-100,-100,-100,0,0,100,0.00,40.00,6,4,10,0.00
2013-5-18,88,80,74,-100,-100,-100,0,0,100,0.00,40.00,6,4,11,0.00
2013-5-19,88,81,77,-100,-100,-100,0,0,100,0.00,40.00,7,3,10,0.00
2013-5-20,89,81,77,-100,-100,-100,0,0,100,0.00,40.00,8,4,16,0.00
2013-5-21,87,79,74,-100,-100,-100,0,0,100,0.00,40.00,5,4,9,0.00
2013-5-22,86,82,74,-100,-100,-100,0,0,100,0.00,40.00,8,5,15,0.00
2013-5-23,87,80,74,-100,-100,-100,0,0,100,0.00,40.00,7,4,15,0.00
2013-5-24,92,83,77,-100,-100,-100,0,0,100,0.00,40.00,10,5,16,0.00
2013-5-25,90,83,78,-100,-100,-100,0,0,100,0.00,40.00,8,5,18,0.00
2013-5-26,86,79,73,-100,-100,-100,0,0,100,0.00,40.00,7,5,14,0.00
2013-5-27,88,80,74,-100,-100,-100,0,0,100,0.00,40.00,8,5,17,0.00
2013-5-28,88,80,75,-100,-100,-100,0,0,100,0.00,40.00,8,6,16,0.00
2013-5-29,87,80,75,-100,-100,-100,0,0,100,0.00,40.00,9,6,15,0.00
2013-5-30,88,81,77,-100,-100,-100,0,0,100,0.00,40.00,9,6,16,0.00
2013-5-31,86,80,76,-100,-100,-100,0,0,100,0.00,40.00,7,5,15,0.00
2013-6-1,87,80,76,-100,-100,-100,0,0,100,0.00,40.00,7,4,14,0.00
2013-6-2,88,81,76,-100,-100,-100,0,0,100,0.00,40.00,6,3,14,0.00
2013-6-3,85,81,78,-100,-100,-100,0,0,100,0.00,40.00,7,3,13,0.00
2013-6-4,85,81,78,-100,-100,-100,0,0,100,0.00,40.00,8,3,14,0.00
2013-6-5,84,80,77,-100,-100,-100,0,0,100,0.00,40.00,8,5,14,0.00
2013-6-6,78,77,76,-100,-100,-100,0,0,100,0.00,40.00,11,7,23,0.00
2013-6-7,86,83,80,-100,-100,-100,0,0,100,0.00,40.00,6,4,13,0.00
2013-6-8,87,78,75,-100,-100,-100,0,0,100,0.00,40.00,7,3,14,0.00
2013-6-9,89,81,75,-100,-100,-100,0,0,100,0.00,40.00,10,4,20,0.00
2013-6-10,89,83,78,-100,-100,-100,0,0,100,0.00,40.00,8,4,15,0.00
2013-6-11,88,84,80,-100,-100,-100,0,0,100,0.00,40.00,6,2,14,0.00
2013-6-12,82,81,80,-100,-100,-100,0,0,100,0.00,40.00,5,3,7,0.00
2013-8-12,89,88,87,-100,-100,-100,0,0,100,0.00,40.00,5,4,7,0.00
2013-8-13,84,82,81,-100,-100,-100,0,0,100,0.00,40.00,2,2,5,0.00
2013-8-14,91,87,81,-100,-100,-100,0,0,100,0.00,40.00,5,3,10,0.00
2013-8-15,90,76,80,-100,-100,-100,0,0,100,0.00,40.00,6,2,11,0.00
2013-8-16,91,86,82,-100,-100,-100,0,0,100,0.00,40.00,6,3,10,0.00
2013-8-17,93,84,77,-100,-100,-100,0,0,100,0.00,40.00,6,3,10,0.00
2013-8-19,90,55,79,-100,-100,-100,0,0,100,0.00,40.00,6,4,14,0.00
2013-8-21,87,86,84,-100,-100,-100,0,0,100,0.00,40.00,6,4,9,0.00
2013-8-22,91,71,77,-100,-100,-100,0,0,100,0.00,40.00,6,4,11,0.00
2013-8-23,91,86,80,-100,-100,-100,0,0,100,0.00,40.00,7,4,11,0.00
2013-8-24,92,84,79,-100,-100,-100,0,0,100,0.00,40.00,9,4,17,0.00
2013-8-25,80,79,79,-100,-100,-100,0,0,100,0.00,40.00,3,2,7,0.00
2013-8-26,91,83,78,-100,-100,-100,0,0,100,0.00,40.00,6,4,11,0.00
2013-8-27,90,82,79,-100,-100,-100,0,0,100,0.00,40.00,6,3,11,0.00
2013-8-28,90,85,81,-100,-100,-100,0,0,100,0.00,40.00,5,2,9,0.00
2013-8-29,90,86,81,-100,-100,-100,0,0,100,0.00,40.00,7,3,13,0.00
2013-8-30,86,75,80,-100,-100,-100,0,0,100,0.00,40.00,7,3,13,0.00
2013-8-31,89,86,79,-100,-100,-100,0,0,100,0.00,40.00,5,2,9,0.00
2013-9-1,84,84,83,-100,-100,-100,0,0,100,0.00,40.00,1,1,2,0.00
2013-9-2,89,82,78,-100,-100,-100,0,0,100,0.00,40.00,5,1,7,0.00
2013-9-3,89,84,78,-100,-100,-100,0,0,100,0.00,40.00,5,1,8,0.00
2013-9-4,91,72,80,-100,-100,-100,0,0,100,0.00,40.00,6,3,11,0.00
2013-9-5,94,84,81,-100,-100,-100,0,0,100,0.00,40.00,6,3,11,0.00
2013-9-6,92,85,78,-100,-100,-100,0,0,100,0.00,40.00,5,2,9,0.00
2013-9-7,89,83,76,-100,-100,-100,0,0,100,0.00,40.00,6,3,9,0.00
2013-9-8,87,84,80,-100,-100,-100,0,0,100,0.00,40.00,7,4,16,0.00
2013-9-9,91,84,80,-100,-100,-100,0,0,100,0.00,40.00,6,4,11,0.00
2013-9-10,92,85,81,-100,-100,-100,0,0,100,0.00,40.00,8,5,15,0.00
2013-9-11,92,83,80,-100,-100,-100,0,0,100,0.00,40.00,7,5,11,0.00
2013-9-12,87,84,81,-100,-100,-100,0,0,100,0.00,40.00,6,2,10,0.00
2013-9-13,86,72,75,-100,-100,-100,0,0,100,0.00,40.00,5,2,8,0.00
2013-9-14,89,84,77,-100,-100,-100,0,0,100,0.00,40.00,6,2,10,0.00
2013-9-15,93,68,81,-100,-100,-100,0,0,100,0.00,40.00,10,4,23,0.00
2013-9-16,92,72,79,-100,-100,-100,0,0,100,0.00,40.00,6,3,13,0.00
2013-9-17,89,84,78,-100,-100,-100,0,0,100,0.00,40.00,7,6,15,0.00
2013-9-19,80,79,77,-100,-100,-100,0,0,100,0.00,40.00,6,4,11,0.00
2013-9-20,89,83,79,-100,-100,-100,0,0,100,0.00,40.00,6,4,10,0.00
2013-9-21,88,82,77,-100,-100,-100,0,0,100,0.00,40.00,6,3,10,0.00
2013-9-22,89,84,80,-100,-100,-100,0,0,100,0.00,40.00,6,2,14,0.00
2013-9-23,82,80,77,-100,-100,-100,0,0,100,0.00,40.00,5,3,9,0.00
2013-9-24,82,79,76,-100,-100,-100,0,0,100,0.00,40.00,2,2,7,0.00
2013-9-25,82,78,72,-100,-100,-100,0,0,100,0.00,40.00,6,2,15,0.00
2013-9-26,89,83,78,-100,-100,-100,0,0,100,0.00,40.00,8,4,14,0.00
2013-9-27,85,79,73,-100,-100,-100,0,0,100,0.00,40.00,7,4,14,0.00
2013-9-28,87,81,74,-100,-100,-100,0,0,100,0.00,40.00,6,4,13,0.00
2013-9-29,88,80,74,-100,-100,-100,0,0,100,0.00,40.00,6,3,11,0.00
2013-9-30,88,81,77,-100,-100,-100,0,0,100,0.00,40.00,6,4,8,0.00
2013-10-2,89,82,77,-100,-100,-100,0,0,100,0.00,40.00,7,5,13,0.00
2013-10-3,88,81,78,-100,-100,-100,0,0,100,0.00,40.00,6,4,11,0.00
2013-10-4,88,82,79,-100,-100,-100,0,0,100,0.00,40.00,5,2,7,0.00
2013-10-5,90,84,80,-100,-100,-100,0,0,100,0.00,40.00,6,4,10,0.00
2013-10-6,90,82,78,-100,-100,-100,0,0,100,0.00,40.00,6,3,9,0.00
2013-10-7,86,82,77,-100,-100,-100,0,0,100,0.00,40.00,8,4,14,0.00
2013-10-8,86,82,78,-100,-100,-100,0,0,100,0.00,40.00,6,4,11,0.00
2013-10-9,80,77,72,-100,-100,-100,0,0,100,0.00,40.00,6,3,13,0.00
2013-10-10,84,76,71,-100,-100,-100,0,0,100,0.00,40.00,6,4,10,0.00
2013-10-11,79,77,75,-100,-100,-100,0,0,100,0.00,40.00,2,1,7,0.00
2013-10-12,86,80,75,-100,-100,-100,0,0,100,0.00,40.00,6,3,9,0.00
2013-10-13,86,78,69,-100,-100,-100,0,0,100,0.00,40.00,5,2,9,0.00
2013-10-14,85,78,72,-100,-100,-100,0,0,100,0.00,40.00,6,3,14,0.00
2013-10-15,82,76,71,-100,-100,-100,0,0,100,0.00,40.00,5,3,10,0.00
2013-10-16,83,77,73,-100,-100,-100,0,0,100,0.00,40.00,5,2,7,0.00
2013-10-17,87,80,75,-100,-100,-100,0,0,100,0.00,40.00,6,3,9,0.00
2013-10-18,88,82,76,-100,-100,-100,0,0,100,0.00,40.00,5,2,10,0.00
2013-10-19,89,82,77,-100,-100,-100,0,0,100,0.00,40.00,5,2,8,0.00
2013-10-20,88,84,77,-100,-100,-100,0,0,100,0.00,40.00,5,2,8,0.00
2013-10-21,85,82,80,-100,-100,-100,0,0,100,0.00,40.00,3,1,6,0.00
2013-10-22,86,78,74,-100,-100,-100,0,0,100,0.00,40.00,6,1,9,0.00
2013-10-23,79,76,73,-100,-100,-100,0,0,100,0.00,40.00,10,4,16,0.00
2013-10-24,73,69,66,-100,-100,-100,0,0,100,0.00,40.00,5,4,13,0.00
2013-10-25,81,74,64,-100,-100,-100,0,0,100,0.00,40.00,5,3,11,0.00
2013-10-26,79,71,66,-100,-100,-100,0,0,100,0.00,40.00,6,4,10,0.00
2013-10-27,80,71,64,-100,-100,-100,0,0,100,0.00,40.00,6,3,11,0.00
2013-10-28,81,74,67,-100,-100,-100,0,0,100,0.00,40.00,6,4,10,0.00
2013-10-29,84,78,71,-100,-100,-100,0,0,100,0.00,40.00,7,5,11,0.00
2013-10-30,84,76,71,-100,-100,-100,0,0,100,0.00,40.00,6,4,10,0.00
2013-10-31,85,78,72,-100,-100,-100,0,0,100,0.00,40.00,5,2,9,0.00
2013-11-1,84,79,74,-100,-100,-100,0,0,100,0.00,40.00,7,2,13,0.00
2013-11-2,79,74,69,-100,-100,-100,0,0,100,0.00,40.00,9,3,16,0.00
2013-11-3,76,70,63,-100,-100,-100,0,0,100,0.00,40.00,6,3,14,0.00
2013-11-4,80,70,63,-100,-100,-100,0,0,100,0.00,40.00,9,5,16,0.00
2013-11-5,81,75,68,-100,-100,-100,0,0,100,0.00,40.00,8,5,15,0.00
2013-11-6,85,78,73,-100,-100,-100,0,0,100,0.00,40.00,6,4,10,0.00
2013-11-7,82,74,71,-100,-100,-100,0,0,100,0.00,40.00,3,1,7,0.00
2013-11-8,78,73,69,-100,-100,-100,0,0,100,0.00,40.00,7,4,14,0.00
2013-11-9,81,76,68,-100,-100,-100,0,0,100,0.00,40.00,6,6,13,0.00
2013-11-10,82,75,69,-100,-100,-100,0,0,100,0.00,40.00,6,2,11,0.00
2013-11-11,81,74,69,-100,-100,-100,0,0,100,0.00,40.00,7,3,13,0.00
2013-11-12,74,72,70,-100,-100,-100,0,0,100,0.00,40.00,7,4,11,0.00
2013-11-13,70,64,58,-100,-100,-100,0,0,100,0.00,40.00,9,7,17,0.00
2013-11-14,73,62,56,-100,-100,-100,0,0,100,0.00,40.00,6,3,14,0.00
2013-11-15,73,70,67,-100,-100,-100,0,0,100,0.00,40.00,6,3,10,0.00
2013-11-16,71,71,71,-100,-100,-100,0,0,100,0.00,40.00,1,1,3,0.00
2013-11-18,81,78,75,-100,-100,-100,0,0,100,0.00,40.00,5,3,7,0.00
2013-11-19,79,75,71,-100,-100,-100,0,0,100,0.00,40.00,6,3,9,0.00
2013-11-20,82,74,68,-100,-100,-100,0,0,100,0.00,40.00,6,3,13,0.00
2013-11-21,84,77,73,-100,-100,-100,0,0,100,0.00,40.00,6,5,11,0.00
2013-11-22,83,78,73,-100,-100,-100,0,0,100,0.00,40.00,6,4,11,0.00
2013-11-23,81,74,70,-100,-100,-100,0,0,100,0.00,40.00,5,3,9,0.00
2013-11-24,71,68,62,-100,-100,-100,0,0,100,0.00,40.00,9,6,17,0.00
2013-11-25,77,72,62,-100,-100,-100,0,0,100,0.00,40.00,9,7,18,0.00
2013-11-26,82,75,70,-100,-100,-100,0,0,100,0.00,40.00,9,6,21,0.00
2013-11-27,74,66,52,-100,-100,-100,0,0,100,0.00,40.00,16,9,25,0.00
2013-11-28,64,52,42,-100,-100,-100,0,0,100,0.00,40.00,6,4,15,0.00
2013-11-29,73,63,55,-100,-100,-100,0,0,100,0.00,40.00,7,4,15,0.00
2013-11-30,76,66,58,-100,-100,-100,0,0,100,0.00,40.00,6,4,11,0.00
2013-12-1,75,66,62,-100,-100,-100,0,0,100,0.00,40.00,7,3,10,0.00
2013-12-2,71,66,61,-100,-100,-100,0,0,100,0.00,40.00,5,2,9,0.00
2013-12-3,78,70,61,-100,-100,-100,0,0,100,0.00,40.00,6,2,8,0.00
2013-12-4,82,73,67,-100,-100,-100,0,0,100,0.00,40.00,3,1,9,0.00
2013-12-5,82,74,68,-100,-100,-100,0,0,100,0.00,40.00,6,2,9,0.00
2013-12-6,83,75,69,-100,-100,-100,0,0,100,0.00,40.00,7,2,11,0.00
2013-12-7,83,75,69,-100,-100,-100,0,0,100,0.00,40.00,5,1,6,0.00
2013-12-8,84,75,70,-100,-100,-100,0,0,100,0.00,40.00,6,2,10,0.00
2013-12-9,83,75,70,-100,-100,-100,0,0,100,0.00,40.00,6,2,11,0.00
2013-12-10,82,74,67,-100,-100,-100,0,0,100,0.00,40.00,5,2,9,0.00
2013-12-11,82,73,67,-100,-100,-100,0,0,100,0.00,40.00,6,4,13,0.00
2013-12-12,73,67,60,-100,-100,-100,0,0,100,0.00,40.00,8,4,15,0.00
2013-12-13,76,65,56,-100,-100,-100,0,0,100,0.00,40.00,8,4,14,0.00
2013-12-14,82,74,67,-100,-100,-100,0,0,100,0.00,40.00,7,4,15,0.00
2013-12-15,75,70,62,-100,-100,-100,0,0,100,0.00,40.00,7,5,14,0.00
2013-12-16,65,58,53,-100,-100,-100,0,0,100,0.00,40.00,6,4,10,0.00
2013-12-17,72,60,52,-100,-100,-100,0,0,100,0.00,40.00,6,3,9,0.00
2013-12-18,71,62,56,-100,-100,-100,0,0,100,0.00,40.00,7,3,15,0.00
2013-12-19,76,66,57,-100,-100,-100,0,0,100,0.00,40.00,6,4,11,0.00
2013-12-20,83,72,65,-100,-100,-100,0,0,100,0.00,40.00,5,2,8,0.00
2013-12-21,83,75,68,-100,-100,-100,0,0,100,0.00,40.00,6,3,11,0.00
2013-12-22,83,76,70,-100,-100,-100,0,0,100,0.00,40.00,7,3,16,0.00
2013-12-23,83,75,69,-100,-100,-100,0,0,100,0.00,40.00,7,2,16,0.00
2013-12-24,75,66,57,-100,-100,-100,0,0,100,0.00,40.00,11,6,17,0.00
2013-12-25,76,63,51,-100,-100,-100,0,0,100,0.00,40.00,6,5,14,0.00
2013-12-26,77,68,63,-100,-100,-100,0,0,100,0.00,40.00,6,3,11,0.00
2013-12-27,72,67,63,-100,-100,-100,0,0,100,0.00,40.00,7,5,13,0.00
2013-12-28,79,72,67,-100,-100,-100,0,0,100,0.00,40.00,7,4,16,0.00
2013-12-29,75,71,65,-100,-100,-100,0,0,100,0.00,40.00,11,4,20,0.00
2013-12-30,65,64,62,-100,-100,-100,0,0,100,0.00,40.00,6,3,9,0.00
2013-12-31,69,66,62,-100,-100,-100,0,0,100,0.00,40.00,6,3,14,0.00
2014-1-1,65,63,61,-100,-100,-100,0,0,100,0.00,40.00,7,5,13,0.00
2014-1-2,78,70,63,-100,-100,-100,0,0,100,0.00,40.00,16,5,28,0.00